Seiyu Maru — JD3189 — position and weather

sailwx.info

Track history (hours):
 
Tides and Currents Weather Stations Pressure Air Temp Water Temp Dewpoint Dewpoint Depression Visibility Wind Speed Wind Dir Waves Ship Positions

Seiyu Maru

Last reported at 2014-Aug-22 06:33 UTC. Time now 2014-Aug-22 13:47 UTC.
Position N 34°15' E 135°04'.

Length 75 m; draft 4.5 m.

Type: Cargo ship. MMSI: 431002433.

Date/timePositionNaut miles runAvg speedWind from/ knotsBaromVisibWave heightAir tempDewpointWater temp
2014-Aug-22 06:33N 34°15' E 135°04'2 2.3
2014-Aug-22 05:33N 34°15' E 135°07'0 0.0
2014-Aug-22 04:33N 34°15' E 135°07'0 0.0
2014-Aug-22 03:33N 34°15' E 135°07'0 0.0
2014-Aug-22 02:33N 34°15' E 135°07'0 0.1
2014-Aug-22 01:33N 34°15' E 135°07'0 0.0
2014-Aug-22 00:33N 34°15' E 135°07'0 0.0
2014-Aug-21 23:33N 34°15' E 135°07'0 0.1
2014-Aug-21 22:33N 34°15' E 135°07'0 0.0
2014-Aug-21 21:33N 34°15' E 135°07'0 0.0
2014-Aug-21 20:33N 34°15' E 135°07'0 0.0
2014-Aug-21 19:33N 34°15' E 135°07'0 0.0
2014-Aug-21 18:33N 34°15' E 135°07'0 0.0
2014-Aug-21 17:33N 34°15' E 135°07'0 0.0
2014-Aug-21 16:33N 34°15' E 135°07'0 0.0
2014-Aug-21 15:33N 34°15' E 135°07'0 0.0
2014-Aug-21 14:33N 34°15' E 135°07'0 0.0
2014-Aug-21 13:32N 34°15' E 135°07'0 0.0
2014-Aug-21 12:33N 34°15' E 135°07'0 0.0
2014-Aug-21 11:27N 34°15' E 135°07'0 0.0
2014-Aug-21 10:33N 34°15' E 135°07'0 0.0
2014-Aug-21 09:33N 34°15' E 135°07'0 0.0
2014-Aug-21 08:33N 34°15' E 135°07'15 6.5
2014-Aug-21 06:12N 34°29' E 135°13'1111.4
2014-Aug-21 05:12N 34°36' E 135°24'3 4.7
2014-Aug-21 04:33N 34°34' E 135°27'0 0.0
2014-Aug-21 03:33N 34°34' E 135°27'0 0.0
2014-Aug-21 02:33N 34°34' E 135°27'0 0.0
2014-Aug-21 01:32N 34°34' E 135°27'0 0.0
2014-Aug-21 00:33N 34°34' E 135°27'0 0.0
2014-Aug-20 23:33N 34°34' E 135°27'0 0.0
2014-Aug-20 22:33N 34°34' E 135°27'0 0.0
2014-Aug-20 21:32N 34°34' E 135°27'0 0.0
2014-Aug-20 20:32N 34°34' E 135°27'0 0.0
2014-Aug-20 19:33N 34°34' E 135°27'0 0.0
2014-Aug-20 18:33N 34°34' E 135°27'0 0.0
2014-Aug-20 17:31N 34°34' E 135°27'0 0.0
2014-Aug-20 16:33N 34°34' E 135°27'0 0.0
2014-Aug-20 15:31N 34°34' E 135°27'0 0.0
2014-Aug-20 14:24N 34°34' E 135°27'0 0.0
2014-Aug-20 13:26N 34°34' E 135°27'0 0.0
2014-Aug-20 12:33N 34°34' E 135°27'0 0.0
2014-Aug-20 11:33N 34°34' E 135°27'0 0.0
2014-Aug-20 10:33N 34°34' E 135°27'0 0.0
2014-Aug-20 09:33N 34°34' E 135°27'0 0.0
2014-Aug-20 08:33N 34°34' E 135°27'0 0.0
2014-Aug-20 07:30N 34°34' E 135°27'0 0.3
2014-Aug-20 06:32N 34°35' E 135°27'0 0.0
2014-Aug-20 05:33N 34°35' E 135°27'0 0.0
2014-Aug-20 04:32N 34°35' E 135°27'0 0.0
2014-Aug-20 03:31N 34°35' E 135°27'0 0.0
2014-Aug-20 02:33N 34°35' E 135°27'1 0.2
2014-Aug-19 23:07N 34°35' E 135°26'0 0.9
2014-Aug-19 22:33N 34°35' E 135°27'1 1.1
2014-Aug-19 21:32N 34°35' E 135°26'9 9.7
2014-Aug-19 20:33N 34°31' E 135°16'1211.4
2014-Aug-19 19:33N 34°23' E 135°06'1110.5
2014-Aug-19 18:27N 34°12' E 134°60'219 8.7
2014-Aug-18 17:15N 34°49' E 139°21'9 9.7
2014-Aug-18 16:16N 34°50' E 139°32'710.2
2014-Aug-18 15:33N 34°50' E 139°41'1310.0
2014-Aug-18 14:15N 34°52' E 139°57'1210.4
2014-Aug-18 13:09N 34°57' E 140°09'65 9.2
2014-Aug-18 06:09N 35°54' E 140°47'4 7.1
2014-Aug-18 05:32N 35°57' E 140°42'2 0.5
2014-Aug-18 01:07N 35°56' E 140°40'0 0.1
2014-Aug-18 00:28N 35°56' E 140°40'0 0.0
2014-Aug-17 18:32N 35°56' E 140°40'0 0.0
2014-Aug-17 17:27N 35°56' E 140°40'0 0.0
2014-Aug-17 16:28N 35°56' E 140°40'0 0.0
2014-Aug-17 15:33N 35°56' E 140°40'0 0.0
2014-Aug-17 14:33N 35°56' E 140°40'0 0.0
2014-Aug-17 13:32N 35°56' E 140°40'0 0.1
2014-Aug-17 10:33N 35°56' E 140°40'0 0.0
2014-Aug-16 13:05N 35°56' E 140°40'0 0.2
2014-Aug-16 12:30N 35°56' E 140°40'0 0.0
2014-Aug-16 11:17N 35°56' E 140°40'0 0.0
2014-Aug-16 07:33N 35°56' E 140°40'0 0.0
2014-Aug-16 00:24N 35°56' E 140°40'0 0.0
2014-Aug-15 23:04N 35°56' E 140°40'0 0.0
2014-Aug-15 22:32N 35°56' E 140°40'0 0.0
2014-Aug-15 08:17N 35°56' E 140°40'20 6.7
2014-Aug-15 05:19N 35°40' E 140°54'2111.9
2014-Aug-15 03:31N 35°21' E 140°42'2813.3
2014-Aug-15 01:25N 35°01' E 140°18'1112.4
2014-Aug-15 00:31N 34°55' E 140°06'2411.5
2014-Aug-14 22:25N 34°44' E 139°40'245 9.8
2014-Aug-13 21:24N 34°06' E 134°46'  
Track history (hours):
 
Tides and Currents Weather Stations Pressure Air Temp Water Temp Dewpoint Dewpoint Depression Visibility Wind Speed Wind Dir Waves Ship Positions

Seiyu Maru

Last reported at 2014-Aug-22 06:33 UTC. Time now 2014-Aug-22 13:47 UTC.
Position N 34°15' E 135°04'.

Length 75 m; draft 4.5 m.

Type: Cargo ship. MMSI: 431002433.

Date/timePositionNaut miles runAvg speedWind from/ knotsBaromVisibWave heightAir tempDewpointWater temp
2014-Aug-22 06:33N 34°15' E 135°04'2 2.3
2014-Aug-22 05:33N 34°15' E 135°07'0 0.0
2014-Aug-22 04:33N 34°15' E 135°07'0 0.0
2014-Aug-22 03:33N 34°15' E 135°07'0 0.0
2014-Aug-22 02:33N 34°15' E 135°07'0 0.1
2014-Aug-22 01:33N 34°15' E 135°07'0 0.0
2014-Aug-22 00:33N 34°15' E 135°07'0 0.0
2014-Aug-21 23:33N 34°15' E 135°07'0 0.1
2014-Aug-21 22:33N 34°15' E 135°07'0 0.0
2014-Aug-21 21:33N 34°15' E 135°07'0 0.0
2014-Aug-21 20:33N 34°15' E 135°07'0 0.0
2014-Aug-21 19:33N 34°15' E 135°07'0 0.0
2014-Aug-21 18:33N 34°15' E 135°07'0 0.0
2014-Aug-21 17:33N 34°15' E 135°07'0 0.0
2014-Aug-21 16:33N 34°15' E 135°07'0 0.0
2014-Aug-21 15:33N 34°15' E 135°07'0 0.0
2014-Aug-21 14:33N 34°15' E 135°07'0 0.0
2014-Aug-21 13:32N 34°15' E 135°07'0 0.0
2014-Aug-21 12:33N 34°15' E 135°07'0 0.0
2014-Aug-21 11:27N 34°15' E 135°07'0 0.0
2014-Aug-21 10:33N 34°15' E 135°07'0 0.0
2014-Aug-21 09:33N 34°15' E 135°07'0 0.0
2014-Aug-21 08:33N 34°15' E 135°07'15 6.5
2014-Aug-21 06:12N 34°29' E 135°13'1111.4
2014-Aug-21 05:12N 34°36' E 135°24'3 4.7
2014-Aug-21 04:33N 34°34' E 135°27'0 0.0
2014-Aug-21 03:33N 34°34' E 135°27'0 0.0
2014-Aug-21 02:33N 34°34' E 135°27'0 0.0
2014-Aug-21 01:32N 34°34' E 135°27'0 0.0
2014-Aug-21 00:33N 34°34' E 135°27'0 0.0
2014-Aug-20 23:33N 34°34' E 135°27'0 0.0
2014-Aug-20 22:33N 34°34' E 135°27'0 0.0
2014-Aug-20 21:32N 34°34' E 135°27'0 0.0
2014-Aug-20 20:32N 34°34' E 135°27'0 0.0
2014-Aug-20 19:33N 34°34' E 135°27'0 0.0
2014-Aug-20 18:33N 34°34' E 135°27'0 0.0
2014-Aug-20 17:31N 34°34' E 135°27'0 0.0
2014-Aug-20 16:33N 34°34' E 135°27'0 0.0
2014-Aug-20 15:31N 34°34' E 135°27'0 0.0
2014-Aug-20 14:24N 34°34' E 135°27'0 0.0
2014-Aug-20 13:26N 34°34' E 135°27'0 0.0
2014-Aug-20 12:33N 34°34' E 135°27'0 0.0
2014-Aug-20 11:33N 34°34' E 135°27'0 0.0
2014-Aug-20 10:33N 34°34' E 135°27'0 0.0
2014-Aug-20 09:33N 34°34' E 135°27'0 0.0
2014-Aug-20 08:33N 34°34' E 135°27'0 0.0
2014-Aug-20 07:30N 34°34' E 135°27'0 0.3
2014-Aug-20 06:32N 34°35' E 135°27'0 0.0
2014-Aug-20 05:33N 34°35' E 135°27'0 0.0
2014-Aug-20 04:32N 34°35' E 135°27'0 0.0
2014-Aug-20 03:31N 34°35' E 135°27'0 0.0
2014-Aug-20 02:33N 34°35' E 135°27'1 0.2
2014-Aug-19 23:07N 34°35' E 135°26'0 0.9
2014-Aug-19 22:33N 34°35' E 135°27'1 1.1
2014-Aug-19 21:32N 34°35' E 135°26'9 9.7
2014-Aug-19 20:33N 34°31' E 135°16'1211.4
2014-Aug-19 19:33N 34°23' E 135°06'1110.5
2014-Aug-19 18:27N 34°12' E 134°60'219 8.7
2014-Aug-18 17:15N 34°49' E 139°21'9 9.7
2014-Aug-18 16:16N 34°50' E 139°32'710.2
2014-Aug-18 15:33N 34°50' E 139°41'1310.0
2014-Aug-18 14:15N 34°52' E 139°57'1210.4
2014-Aug-18 13:09N 34°57' E 140°09'65 9.2
2014-Aug-18 06:09N 35°54' E 140°47'4 7.1
2014-Aug-18 05:32N 35°57' E 140°42'2 0.5
2014-Aug-18 01:07N 35°56' E 140°40'0 0.1
2014-Aug-18 00:28N 35°56' E 140°40'0 0.0
2014-Aug-17 18:32N 35°56' E 140°40'0 0.0
2014-Aug-17 17:27N 35°56' E 140°40'0 0.0
2014-Aug-17 16:28N 35°56' E 140°40'0 0.0
2014-Aug-17 15:33N 35°56' E 140°40'0 0.0
2014-Aug-17 14:33N 35°56' E 140°40'0 0.0
2014-Aug-17 13:32N 35°56' E 140°40'0 0.1
2014-Aug-17 10:33N 35°56' E 140°40'0 0.0
2014-Aug-16 13:05N 35°56' E 140°40'0 0.2
2014-Aug-16 12:30N 35°56' E 140°40'0 0.0
2014-Aug-16 11:17N 35°56' E 140°40'0 0.0
2014-Aug-16 07:33N 35°56' E 140°40'0 0.0
2014-Aug-16 00:24N 35°56' E 140°40'0 0.0
2014-Aug-15 23:04N 35°56' E 140°40'0 0.0
2014-Aug-15 22:32N 35°56' E 140°40'0 0.0
2014-Aug-15 08:17N 35°56' E 140°40'20 6.7
2014-Aug-15 05:19N 35°40' E 140°54'2111.9
2014-Aug-15 03:31N 35°21' E 140°42'2813.3
2014-Aug-15 01:25N 35°01' E 140°18'1112.4
2014-Aug-15 00:31N 34°55' E 140°06'2411.5
2014-Aug-14 22:25N 34°44' E 139°40'245 9.8
2014-Aug-13 21:24N 34°06' E 134°46'  

Dump ship's entire track history